createdAt,value
2017-11-03T00:00:37.939Z,10.15
2017-11-03T00:03:04.031Z,10.16
2017-11-03T00:05:30.365Z,10.18
2017-11-03T00:07:56.412Z,10.18
2017-11-03T00:10:22.504Z,10.18
2017-11-03T00:12:48.732Z,10.16
2017-11-03T00:15:14.906Z,10.13
2017-11-03T00:17:40.952Z,10.12
2017-11-03T00:20:06.963Z,10.14
2017-11-03T00:22:33.118Z,10.13
2017-11-03T00:24:59.292Z,10.11
2017-11-03T00:27:25.511Z,10.08
2017-11-03T00:29:51.606Z,10.07
2017-11-03T00:32:17.801Z,10.06
2017-11-03T00:34:43.796Z,10.05
2017-11-03T00:37:10.015Z,10.04
2017-11-03T00:39:36.185Z,10.02
2017-11-03T00:42:02.232Z,10.00
2017-11-03T00:44:28.259Z,9.98
2017-11-03T00:46:54.373Z,9.97
2017-11-03T00:49:20.539Z,9.96
2017-11-03T00:51:47.234Z,9.94
2017-11-03T00:54:13.268Z,9.92
2017-11-03T00:56:39.456Z,9.90
2017-11-03T00:59:05.592Z,9.89
2017-11-03T01:01:31.720Z,9.87
2017-11-03T01:03:57.838Z,9.88
2017-11-03T01:06:23.933Z,9.88
2017-11-03T01:08:50.047Z,9.88
2017-11-03T01:11:16.793Z,9.87
2017-11-03T01:13:42.944Z,9.87
2017-11-03T01:16:09.120Z,9.87
2017-11-03T01:18:35.154Z,9.87
2017-11-03T01:21:01.395Z,9.85
2017-11-03T01:23:27.607Z,9.83
2017-11-03T01:25:53.762Z,9.82
2017-11-03T01:28:20.223Z,9.83
2017-11-03T01:30:46.414Z,9.85
2017-11-03T01:33:12.533Z,9.89
2017-11-03T01:35:38.672Z,9.90
2017-11-03T01:38:04.875Z,9.90
2017-11-03T01:40:30.885Z,9.90
2017-11-03T01:42:57.078Z,9.93
2017-11-03T01:45:23.277Z,9.96
2017-11-03T01:47:49.394Z,9.97
2017-11-03T01:50:15.592Z,9.98
2017-11-03T01:52:41.747Z,9.99
2017-11-03T01:55:07.898Z,9.99
2017-11-03T01:57:33.986Z,9.96
2017-11-03T02:00:00.033Z,9.93
2017-11-03T02:02:26.185Z,9.89
2017-11-03T02:04:52.426Z,9.86
2017-11-03T02:07:18.611Z,9.84
2017-11-03T02:09:44.682Z,9.81
2017-11-03T02:12:10.828Z,9.80
2017-11-03T02:14:36.990Z,9.79
2017-11-03T02:17:03.096Z,9.78
2017-11-03T02:19:29.250Z,9.75
2017-11-03T02:21:55.480Z,9.72
2017-11-03T02:24:21.670Z,9.65
2017-11-03T02:26:47.774Z,9.58
2017-11-03T02:29:13.979Z,9.52
2017-11-03T02:31:40.608Z,9.46
2017-11-03T02:34:06.768Z,9.40
2017-11-03T02:36:32.788Z,9.34
2017-11-03T02:38:58.893Z,9.28
2017-11-03T02:41:25.101Z,9.20
2017-11-03T02:43:51.286Z,9.13
2017-11-03T02:46:17.434Z,9.01
2017-11-03T02:48:43.535Z,8.91
2017-11-03T02:51:09.616Z,8.84
2017-11-03T02:53:35.665Z,8.73
2017-11-03T02:56:01.743Z,8.64
2017-11-03T02:58:27.836Z,8.52
2017-11-03T03:00:53.938Z,8.39
2017-11-03T03:03:20.095Z,8.28
2017-11-03T03:05:46.309Z,8.23
2017-11-03T03:08:12.473Z,8.17
2017-11-03T03:10:38.594Z,8.07
2017-11-03T03:13:04.927Z,7.98
2017-11-03T03:15:31.067Z,7.83
2017-11-03T03:17:57.468Z,7.69
2017-11-03T03:20:23.926Z,7.55
2017-11-03T03:22:49.994Z,7.46
2017-11-03T03:25:16.305Z,7.37
2017-11-03T03:27:42.445Z,7.26
2017-11-03T03:30:08.612Z,7.17
2017-11-03T03:32:35.118Z,7.06
2017-11-03T03:35:01.348Z,6.93
2017-11-03T03:37:27.481Z,6.84
2017-11-03T03:39:53.558Z,6.73
2017-11-03T03:42:19.609Z,6.64
2017-11-03T03:44:45.754Z,6.57
2017-11-03T03:47:11.929Z,6.54
2017-11-03T03:49:38.105Z,6.51
2017-11-03T03:52:04.469Z,6.49
2017-11-03T03:54:30.622Z,6.46
2017-11-03T03:56:56.696Z,6.42
2017-11-03T03:59:22.786Z,6.40
2017-11-03T04:01:49.066Z,6.37
2017-11-03T04:04:15.295Z,6.35
2017-11-03T04:06:41.413Z,6.33
2017-11-03T04:09:07.509Z,6.28
2017-11-03T04:11:33.742Z,6.27
2017-11-03T04:13:59.777Z,6.25
2017-11-03T04:16:25.894Z,6.28
2017-11-03T04:18:51.983Z,6.33
2017-11-03T04:21:18.081Z,6.38
2017-11-03T04:23:44.253Z,6.44
2017-11-03T04:26:10.321Z,6.46
2017-11-03T04:28:36.399Z,6.46
2017-11-03T04:31:02.516Z,6.48
2017-11-03T04:33:28.684Z,6.47
2017-11-03T04:35:54.881Z,6.44
2017-11-03T04:38:21.261Z,6.42
2017-11-03T04:40:47.338Z,6.42
2017-11-03T04:43:13.387Z,6.42
2017-11-03T04:45:39.488Z,6.43
2017-11-03T04:48:05.534Z,6.47
2017-11-03T04:50:31.716Z,6.48
2017-11-03T04:52:58.599Z,6.48
2017-11-03T04:55:24.749Z,6.45
2017-11-03T04:57:50.816Z,6.39
2017-11-03T05:00:17.036Z,6.31
2017-11-03T05:02:43.093Z,6.18
2017-11-03T05:05:09.121Z,6.07
2017-11-03T05:07:35.289Z,6.00
2017-11-03T05:10:01.841Z,5.97
2017-11-03T05:12:27.930Z,6.03
2017-11-03T05:14:53.958Z,6.14
2017-11-03T05:17:19.974Z,6.25
2017-11-03T05:19:46.067Z,6.30
2017-11-03T05:22:12.358Z,6.35
2017-11-03T05:24:38.472Z,6.42
2017-11-03T05:27:04.491Z,6.45
2017-11-03T05:29:30.713Z,6.43
2017-11-03T05:31:56.846Z,6.39
2017-11-03T05:34:23.283Z,6.34
2017-11-03T05:36:49.559Z,6.32
2017-11-03T05:39:15.704Z,6.31
2017-11-03T05:41:41.993Z,6.31
2017-11-03T05:44:08.188Z,6.34
2017-11-03T05:46:34.522Z,6.41
2017-11-03T05:49:00.765Z,6.48
2017-11-03T05:51:27.021Z,6.55
2017-11-03T05:53:53.205Z,6.57
2017-11-03T05:56:19.440Z,6.55
2017-11-03T05:58:45.961Z,6.56
2017-11-03T06:01:12.211Z,6.59
2017-11-03T06:03:38.216Z,6.64
2017-11-03T06:06:04.450Z,6.68
2017-11-03T06:08:30.633Z,6.72
2017-11-03T06:10:56.777Z,6.76
2017-11-03T06:13:22.936Z,6.82
2017-11-03T06:15:49.160Z,6.90
2017-11-03T06:18:15.267Z,6.97
2017-11-03T06:20:41.433Z,7.04
2017-11-03T06:23:07.476Z,7.09
2017-11-03T06:25:33.742Z,7.17
2017-11-03T06:30:34.593Z,7.22
2017-11-03T06:33:08.196Z,7.20
2017-11-03T06:35:34.894Z,7.18
2017-11-03T06:38:01.149Z,7.15
2017-11-03T06:40:33.665Z,7.13
2017-11-03T06:43:00.736Z,7.11
2017-11-03T06:45:27.058Z,7.10
2017-11-03T06:47:54.893Z,7.07
2017-11-03T06:50:32.470Z,7.07
2017-11-03T06:52:58.922Z,7.16
2017-11-03T06:55:25.329Z,7.29
2017-11-03T06:57:51.514Z,7.47
2017-11-03T07:00:21.520Z,7.68
2017-11-03T07:02:47.660Z,7.92
2017-11-03T07:05:13.796Z,8.12
2017-11-03T07:07:44.190Z,8.26
2017-11-03T07:10:10.337Z,8.34
2017-11-03T07:12:36.741Z,8.40
2017-11-03T07:15:03.003Z,8.53
2017-11-03T07:17:29.316Z,8.65
2017-11-03T07:19:55.574Z,8.73
2017-11-03T07:22:26.165Z,8.79
2017-11-03T07:24:56.508Z,8.79
2017-11-03T07:27:23.851Z,8.76
2017-11-03T07:29:52.029Z,8.69
2017-11-03T07:32:18.866Z,8.60
2017-11-03T07:34:46.569Z,8.48
2017-11-03T07:37:12.679Z,8.39
2017-11-03T07:39:41.952Z,8.34
2017-11-03T07:42:09.460Z,8.32
2017-11-03T07:44:35.791Z,8.29
2017-11-03T07:47:05.510Z,8.27
2017-11-03T07:49:31.855Z,8.26
2017-11-03T07:51:58.404Z,8.25
2017-11-03T07:54:24.693Z,8.27
2017-11-03T07:56:51.069Z,8.28
2017-11-03T07:59:17.305Z,8.33
2017-11-03T08:01:43.469Z,8.35
2017-11-03T08:04:09.705Z,8.37
2017-11-03T08:06:39.109Z,8.47
2017-11-03T08:09:06.090Z,8.61
2017-11-03T08:11:32.407Z,8.77
2017-11-03T08:13:58.515Z,8.87
2017-11-03T08:16:30.334Z,9.02
2017-11-03T08:18:57.873Z,9.19
2017-11-03T08:21:27.449Z,9.36
2017-11-03T08:23:53.825Z,9.51
2017-11-03T08:26:20.927Z,9.63
2017-11-03T08:28:47.686Z,9.72
2017-11-03T08:31:19.796Z,9.74
2017-11-03T08:33:47.330Z,9.80
2017-11-03T08:36:13.981Z,9.85
2017-11-03T08:38:40.284Z,9.89
2017-11-03T08:41:07.319Z,9.95
2017-11-03T08:43:33.644Z,10.03
2017-11-03T08:46:01.856Z,10.12
2017-11-03T08:51:03.275Z,10.33
2017-11-03T08:53:30.098Z,10.43
2017-11-03T08:55:59.612Z,10.53
2017-11-03T08:58:28.883Z,10.66
2017-11-03T09:00:57.571Z,10.74
2017-11-03T09:03:31.987Z,10.83
2017-11-03T09:06:12.560Z,10.96
2017-11-03T09:08:42.032Z,11.07
2017-11-03T09:11:09.864Z,11.18
2017-11-03T09:13:36.349Z,11.27
2017-11-03T09:16:04.750Z,11.37
2017-11-03T09:18:33.521Z,11.48
2017-11-03T09:20:59.919Z,11.56
2017-11-03T09:23:26.052Z,11.66
2017-11-03T09:25:52.280Z,11.78
2017-11-03T09:28:18.645Z,11.89
2017-11-03T09:30:45.035Z,12.02
2017-11-03T09:33:12.652Z,12.17
2017-11-03T09:35:42.176Z,12.28
2017-11-03T09:38:08.576Z,12.39
2017-11-03T09:40:34.799Z,12.51
2017-11-03T09:43:03.121Z,12.64
2017-11-03T09:45:29.554Z,12.80
2017-11-03T09:47:57.059Z,12.92
2017-11-03T09:50:24.393Z,13.03
2017-11-03T09:52:51.313Z,13.20
2017-11-03T09:55:17.682Z,13.29
2017-11-03T09:57:44.774Z,13.43
2017-11-03T10:00:14.120Z,13.57
2017-11-03T10:02:43.315Z,13.74
2017-11-03T10:05:09.752Z,13.86
2017-11-03T10:07:36.251Z,13.93
2017-11-03T10:10:03.356Z,14.04
2017-11-03T10:12:29.949Z,14.20
2017-11-03T10:14:56.394Z,14.34
2017-11-03T10:17:29.074Z,14.47
2017-11-03T10:19:58.730Z,14.66
2017-11-03T10:22:25.138Z,14.78
2017-11-03T10:25:00.275Z,14.96
2017-11-03T10:27:26.447Z,15.11
2017-11-03T10:29:52.727Z,15.30
2017-11-03T10:34:51.501Z,15.60
2017-11-03T10:37:17.654Z,15.90
2017-11-03T10:39:43.843Z,16.14
2017-11-03T10:45:01.073Z,16.58
2017-11-03T10:50:10.129Z,16.64
2017-11-03T10:52:41.735Z,16.72
2017-11-03T10:55:09.159Z,16.74
2017-11-03T10:57:38.502Z,16.88
2017-11-03T11:00:14.111Z,16.89
2017-11-03T11:02:41.233Z,16.94
2017-11-03T11:05:11.041Z,16.95
2017-11-03T11:07:46.052Z,17.07
2017-11-03T11:10:13.439Z,17.25
2017-11-03T11:15:39.687Z,17.45
2017-11-03T11:18:08.080Z,17.38
2017-11-03T11:20:45.551Z,17.59
2017-11-03T11:23:17.524Z,17.65
2017-11-03T11:25:44.528Z,17.68
2017-11-03T11:28:12.110Z,17.64
2017-11-03T11:30:38.386Z,17.70
2017-11-03T11:33:07.773Z,17.56
2017-11-03T11:35:36.937Z,17.50
2017-11-03T11:38:06.414Z,17.46
2017-11-03T11:40:39.556Z,17.59
2017-11-03T11:43:06.570Z,17.83
2017-11-03T11:45:35.448Z,18.07
2017-11-03T11:48:03.676Z,18.31
2017-11-03T11:50:33.939Z,18.53
2017-11-03T11:53:00.540Z,18.74
2017-11-03T11:55:28.393Z,18.82
2017-11-03T11:57:57.165Z,18.85
2017-11-03T12:00:23.765Z,18.95
2017-11-03T12:02:56.296Z,19.00
2017-11-03T12:05:29.091Z,19.02
2017-11-03T12:07:58.630Z,18.99
2017-11-03T12:10:25.772Z,18.95
2017-11-03T12:12:52.145Z,18.99
2017-11-03T12:15:24.317Z,18.78
2017-11-03T12:17:56.724Z,18.61
2017-11-03T12:20:25.462Z,18.41
2017-11-03T12:23:00.383Z,18.29
2017-11-03T12:25:32.219Z,18.18
2017-11-03T12:28:03.860Z,18.20
2017-11-03T12:30:33.780Z,18.26
2017-11-03T12:33:03.218Z,18.20
2017-11-03T12:38:01.764Z,18.19
2017-11-03T12:40:28.632Z,18.28
2017-11-03T12:43:03.895Z,18.27
2017-11-03T12:45:33.199Z,18.40
2017-11-03T12:48:05.854Z,18.45
2017-11-03T12:50:34.577Z,18.51
2017-11-03T12:53:03.337Z,18.56
2017-11-03T12:55:34.316Z,18.53
2017-11-03T12:58:03.097Z,18.54
2017-11-03T13:00:29.637Z,18.53
2017-11-03T13:02:55.857Z,18.52
2017-11-03T13:05:28.533Z,18.57
2017-11-03T13:08:04.877Z,18.63
2017-11-03T13:10:34.874Z,18.71
2017-11-03T13:13:02.288Z,18.75
2017-11-03T13:15:31.746Z,18.61
2017-11-03T13:17:57.853Z,18.51
2017-11-03T13:20:32.872Z,18.41
2017-11-03T13:23:09.204Z,18.35
2017-11-03T13:25:35.854Z,18.32
2017-11-03T13:28:05.422Z,18.15
2017-11-03T13:30:35.119Z,18.14
2017-11-03T13:35:47.932Z,18.19
2017-11-03T13:38:14.199Z,18.06
2017-11-03T13:40:55.130Z,17.94
2017-11-03T13:43:22.820Z,18.01
2017-11-03T13:45:50.076Z,18.01
2017-11-03T13:48:19.447Z,18.04
2017-11-03T13:50:48.839Z,18.09
2017-11-03T13:53:15.306Z,18.16
2017-11-03T13:55:57.062Z,18.21
2017-11-03T14:01:17.902Z,18.13
2017-11-03T14:03:49.587Z,18.05
2017-11-03T14:06:19.747Z,18.00
2017-11-03T14:08:46.960Z,17.93
2017-11-03T14:11:13.302Z,17.80
2017-11-03T14:13:39.647Z,17.65
2017-11-03T14:16:19.506Z,17.52
2017-11-03T14:18:46.545Z,17.42
2017-11-03T14:21:18.475Z,17.38
2017-11-03T14:23:46.783Z,17.30
2017-11-03T14:26:21.532Z,17.24
2017-11-03T14:28:48.611Z,17.21
2017-11-03T14:31:27.001Z,17.16
2017-11-03T14:33:53.828Z,17.09
2017-11-03T14:36:20.648Z,17.10
2017-11-03T14:38:51.472Z,17.05
2017-11-03T14:41:18.548Z,16.98
2017-11-03T14:43:56.758Z,16.90
2017-11-03T14:46:23.301Z,16.84
2017-11-03T14:48:49.752Z,16.74
2017-11-03T14:51:15.951Z,16.61
2017-11-03T14:53:45.488Z,16.53
2017-11-03T14:56:15.786Z,16.46
2017-11-03T14:58:57.761Z,16.35
2017-11-03T15:07:20.944Z,15.97
2017-11-03T15:09:49.686Z,15.79
2017-11-03T15:12:27.216Z,15.60
2017-11-03T15:14:58.100Z,15.40
2017-11-03T15:17:25.118Z,15.20
2017-11-03T15:19:52.066Z,15.00
2017-11-03T15:22:18.803Z,14.77
2017-11-03T15:24:45.026Z,14.55
2017-11-03T15:27:11.341Z,14.32
2017-11-03T15:29:37.664Z,14.09
2017-11-03T15:32:04.007Z,13.88
2017-11-03T15:34:30.155Z,13.72
2017-11-03T15:36:56.366Z,13.55
2017-11-03T15:39:22.467Z,13.38
2017-11-03T15:41:48.588Z,13.18
2017-11-03T15:47:08.526Z,12.81
2017-11-03T15:49:34.790Z,12.62
2017-11-03T15:52:01.012Z,12.46
2017-11-03T15:54:27.316Z,12.30
2017-11-03T15:56:53.442Z,12.16
2017-11-03T15:59:20.586Z,11.99
2017-11-03T16:01:46.906Z,11.82
2017-11-03T16:04:13.126Z,11.65
2017-11-03T16:06:40.406Z,11.53
2017-11-03T16:09:06.844Z,11.40
2017-11-03T16:11:32.879Z,11.30
2017-11-03T16:13:58.988Z,11.17
2017-11-03T16:16:25.336Z,11.05
2017-11-03T16:18:51.428Z,10.94
2017-11-03T16:21:17.572Z,10.86
2017-11-03T16:23:43.721Z,10.82
2017-11-03T16:26:09.963Z,10.74
2017-11-03T16:28:36.097Z,10.65
2017-11-03T16:31:02.213Z,10.54
2017-11-03T16:33:29.179Z,10.43
2017-11-03T16:35:55.298Z,10.33
2017-11-03T16:38:21.524Z,10.33
2017-11-03T16:40:47.699Z,10.29
2017-11-03T16:43:14.044Z,10.17
2017-11-03T16:45:40.168Z,10.04
2017-11-03T16:48:06.539Z,9.94
2017-11-03T16:50:33.581Z,9.86
2017-11-03T16:53:00.293Z,9.77
2017-11-03T16:55:33.392Z,9.70
2017-11-03T16:57:59.812Z,9.62
2017-11-03T17:00:26.003Z,9.59
2017-11-03T17:02:52.103Z,9.57
2017-11-03T17:05:18.176Z,9.56
2017-11-03T17:07:44.625Z,9.54
2017-11-03T17:10:11.042Z,9.53
2017-11-03T17:12:37.616Z,9.52
2017-11-03T17:15:03.841Z,9.54
2017-11-03T17:17:30.579Z,9.55
2017-11-03T17:19:56.837Z,9.59
2017-11-03T17:22:23.016Z,9.60
2017-11-03T17:24:49.151Z,9.66
2017-11-03T17:27:15.239Z,9.59
2017-11-03T17:29:41.538Z,9.52
2017-11-03T17:32:07.751Z,9.47
2017-11-03T17:34:33.947Z,9.44
2017-11-03T17:37:00.112Z,9.41
2017-11-03T17:39:26.189Z,9.48
2017-11-03T17:41:52.291Z,9.49
2017-11-03T17:44:18.573Z,9.45
2017-11-03T17:46:44.716Z,9.37
2017-11-03T17:49:11.973Z,9.33
2017-11-03T17:51:38.214Z,9.30
2017-11-03T17:54:04.533Z,9.24
2017-11-03T17:56:30.634Z,9.19
2017-11-03T17:58:56.825Z,9.15
2017-11-03T18:01:22.894Z,9.16
2017-11-03T18:03:49.116Z,9.15
2017-11-03T18:06:16.446Z,9.13
2017-11-03T18:08:42.632Z,9.18
2017-11-03T18:11:08.760Z,9.30
2017-11-03T18:13:34.989Z,9.30
2017-11-03T18:16:01.239Z,9.29
2017-11-03T18:18:27.492Z,9.23
2017-11-03T18:20:53.649Z,9.17
2017-11-03T18:23:19.762Z,9.11
2017-11-03T18:25:45.885Z,9.05
2017-11-03T18:28:12.154Z,8.99
2017-11-03T18:30:45.859Z,8.94
2017-11-03T18:33:11.959Z,8.84
2017-11-03T18:35:38.517Z,8.75
2017-11-03T18:38:04.741Z,8.68
2017-11-03T18:40:31.324Z,8.62
2017-11-03T18:42:57.612Z,8.58
2017-11-03T18:45:23.739Z,8.52
2017-11-03T18:47:50.130Z,8.49
2017-11-03T18:50:16.888Z,8.48
2017-11-03T18:52:43.595Z,8.45
2017-11-03T18:55:09.883Z,8.42
2017-11-03T18:57:36.496Z,8.35
2017-11-03T19:00:02.713Z,8.30
2017-11-03T19:02:28.999Z,8.26
2017-11-03T19:04:55.410Z,8.23
2017-11-03T19:07:21.904Z,8.22
2017-11-03T19:09:47.985Z,8.22
2017-11-03T19:12:14.065Z,8.21
2017-11-03T19:14:40.140Z,8.23
2017-11-03T19:22:48.211Z,8.17
2017-11-03T19:28:57.470Z,8.14
2017-11-03T19:34:27.981Z,8.03
2017-11-03T19:36:54.312Z,7.95
2017-11-03T19:43:04.472Z,7.80
2017-11-03T19:45:30.736Z,7.76
2017-11-03T19:47:56.869Z,7.75
2017-11-03T19:50:22.946Z,7.76
2017-11-03T19:52:49.171Z,7.72
2017-11-03T19:55:15.358Z,7.64
2017-11-03T19:57:41.608Z,7.55
2017-11-03T20:00:07.891Z,7.49
2017-11-03T20:02:34.156Z,7.44
2017-11-03T20:05:00.520Z,7.39
2017-11-03T20:07:26.665Z,7.34
2017-11-03T20:09:52.676Z,7.29
2017-11-03T20:12:19.007Z,7.25
2017-11-03T20:14:45.148Z,7.23
2017-11-03T20:17:11.493Z,7.20
2017-11-03T20:19:37.708Z,7.14
2017-11-03T20:22:03.772Z,7.10
2017-11-03T20:24:29.899Z,7.06
2017-11-03T20:26:56.002Z,7.03
2017-11-03T20:29:22.396Z,7.01
2017-11-03T20:31:48.647Z,6.98
2017-11-03T20:34:14.715Z,6.94
2017-11-03T20:36:40.998Z,6.93
2017-11-03T20:39:07.160Z,6.84
2017-11-03T20:41:33.298Z,6.77
2017-11-03T20:43:59.530Z,6.71
2017-11-03T20:46:25.772Z,6.65
2017-11-03T20:48:51.871Z,6.58
2017-11-03T20:51:18.061Z,6.49
2017-11-03T20:53:44.336Z,6.42
2017-11-03T20:56:10.339Z,6.34
2017-11-03T20:58:36.897Z,6.26
2017-11-03T21:01:02.965Z,6.26
2017-11-03T21:03:29.208Z,6.27
2017-11-03T21:05:55.421Z,6.24
2017-11-03T21:08:21.651Z,6.21
2017-11-03T21:10:47.995Z,6.17
2017-11-03T21:13:14.500Z,6.12
2017-11-03T21:15:40.717Z,6.12
2017-11-03T21:18:06.844Z,6.12
2017-11-03T21:20:33.581Z,6.11
2017-11-03T21:28:34.481Z,6.14
2017-11-03T21:31:10.786Z,6.17
2017-11-03T21:33:53.119Z,6.17
2017-11-03T21:39:29.985Z,6.12
2017-11-03T22:06:12.078Z,5.91
2017-11-03T22:08:44.012Z,5.95
2017-11-03T22:11:13.037Z,5.94
2017-11-03T22:13:42.867Z,5.93
2017-11-03T22:16:09.328Z,5.92
2017-11-03T22:18:47.234Z,5.88
2017-11-03T22:21:13.388Z,5.81
2017-11-03T22:23:39.826Z,5.76
2017-11-03T22:26:05.995Z,5.76
2017-11-03T22:28:32.021Z,5.73
2017-11-03T22:30:58.123Z,5.69
2017-11-03T22:33:24.215Z,5.62
2017-11-03T22:35:50.554Z,5.58
2017-11-03T22:38:16.627Z,5.56
2017-11-03T22:40:42.815Z,5.51
2017-11-03T22:43:09.081Z,5.47
2017-11-03T22:45:35.164Z,5.43
2017-11-03T22:48:01.216Z,5.45
2017-11-03T22:50:27.267Z,5.48
2017-11-03T22:52:53.343Z,5.57
2017-11-03T22:55:19.545Z,5.62
2017-11-03T22:57:45.715Z,5.65
2017-11-03T23:00:11.768Z,5.64
2017-11-03T23:02:37.973Z,5.60
2017-11-03T23:05:04.232Z,5.56
2017-11-03T23:07:30.390Z,5.57
2017-11-03T23:09:56.535Z,5.58
2017-11-03T23:12:22.795Z,5.57
2017-11-03T23:14:48.894Z,5.53
2017-11-03T23:17:14.934Z,5.45
2017-11-03T23:19:41.166Z,5.38
2017-11-03T23:22:07.209Z,5.33
2017-11-03T23:24:33.279Z,5.35
2017-11-03T23:26:59.549Z,5.32
2017-11-03T23:29:25.570Z,5.28
2017-11-03T23:31:51.813Z,5.25
2017-11-03T23:34:18.015Z,5.24
2017-11-03T23:36:44.149Z,5.28
2017-11-03T23:39:10.212Z,5.31
2017-11-03T23:41:36.349Z,5.31
2017-11-03T23:44:02.399Z,5.32
2017-11-03T23:46:28.533Z,5.32
2017-11-03T23:48:54.761Z,5.29
2017-11-03T23:51:20.850Z,5.25
2017-11-03T23:53:46.894Z,5.27
2017-11-03T23:56:12.990Z,5.31
2017-11-03T23:58:39.163Z,5.35
